sensor_id;sensor_type;location;lat;lon;timestamp;P1;durP1;ratioP1;P2;durP2;ratioP2
58412;SDS011;44209;52.952;6.790;2023-04-15T00:02:18;11.93;;;6.70;;
58412;SDS011;44209;52.952;6.790;2023-04-15T00:04:44;12.57;;;6.63;;
58412;SDS011;44209;52.952;6.790;2023-04-15T00:07:10;9.90;;;7.10;;
58412;SDS011;44209;52.952;6.790;2023-04-15T00:09:36;12.13;;;7.13;;
58412;SDS011;44209;52.952;6.790;2023-04-15T00:12:03;13.87;;;6.67;;
58412;SDS011;44209;52.952;6.790;2023-04-15T00:14:29;10.87;;;6.60;;
58412;SDS011;44209;52.952;6.790;2023-04-15T00:16:55;11.83;;;6.70;;
58412;SDS011;44209;52.952;6.790;2023-04-15T00:19:21;12.30;;;7.40;;
58412;SDS011;44209;52.952;6.790;2023-04-15T00:21:48;10.90;;;6.93;;
58412;SDS011;44209;52.952;6.790;2023-04-15T00:24:14;12.17;;;8.10;;
58412;SDS011;44209;52.952;6.790;2023-04-15T00:26:39;11.97;;;6.63;;
58412;SDS011;44209;52.952;6.790;2023-04-15T00:29:05;10.90;;;7.20;;
58412;SDS011;44209;52.952;6.790;2023-04-15T00:31:31;12.47;;;7.30;;
58412;SDS011;44209;52.952;6.790;2023-04-15T00:33:57;14.23;;;7.97;;
58412;SDS011;44209;52.952;6.790;2023-04-15T00:36:23;13.03;;;7.47;;
58412;SDS011;44209;52.952;6.790;2023-04-15T00:38:50;12.33;;;7.43;;
58412;SDS011;44209;52.952;6.790;2023-04-15T00:41:16;12.87;;;7.47;;
58412;SDS011;44209;52.952;6.790;2023-04-15T00:43:43;13.47;;;7.23;;
58412;SDS011;44209;52.952;6.790;2023-04-15T00:46:09;13.53;;;7.87;;
58412;SDS011;44209;52.952;6.790;2023-04-15T00:48:38;13.80;;;7.47;;
58412;SDS011;44209;52.952;6.790;2023-04-15T00:51:04;15.00;;;7.77;;
58412;SDS011;44209;52.952;6.790;2023-04-15T00:53:31;12.70;;;7.20;;
58412;SDS011;44209;52.952;6.790;2023-04-15T00:55:57;11.33;;;7.37;;
58412;SDS011;44209;52.952;6.790;2023-04-15T00:58:23;12.87;;;8.27;;
58412;SDS011;44209;52.952;6.790;2023-04-15T01:00:49;12.60;;;8.40;;
58412;SDS011;44209;52.952;6.790;2023-04-15T01:03:18;12.60;;;7.77;;
58412;SDS011;44209;52.952;6.790;2023-04-15T01:05:44;15.73;;;8.33;;
58412;SDS011;44209;52.952;6.790;2023-04-15T01:08:10;12.20;;;8.20;;
58412;SDS011;44209;52.952;6.790;2023-04-15T01:10:36;16.57;;;8.23;;
58412;SDS011;44209;52.952;6.790;2023-04-15T01:13:03;12.27;;;8.07;;
58412;SDS011;44209;52.952;6.790;2023-04-15T01:15:29;14.30;;;7.80;;
58412;SDS011;44209;52.952;6.790;2023-04-15T01:17:56;11.10;;;8.43;;
58412;SDS011;44209;52.952;6.790;2023-04-15T01:20:26;13.03;;;8.20;;
58412;SDS011;44209;52.952;6.790;2023-04-15T01:22:53;12.77;;;7.57;;
58412;SDS011;44209;52.952;6.790;2023-04-15T01:25:29;12.87;;;8.00;;
58412;SDS011;44209;52.952;6.790;2023-04-15T01:27:57;12.00;;;8.80;;
58412;SDS011;44209;52.952;6.790;2023-04-15T01:30:23;14.33;;;8.50;;
58412;SDS011;44209;52.952;6.790;2023-04-15T01:32:50;13.57;;;8.13;;
58412;SDS011;44209;52.952;6.790;2023-04-15T01:35:16;11.77;;;8.20;;
58412;SDS011;44209;52.952;6.790;2023-04-15T01:37:42;12.07;;;8.90;;
58412;SDS011;44209;52.952;6.790;2023-04-15T01:40:08;15.07;;;9.43;;
58412;SDS011;44209;52.952;6.790;2023-04-15T01:42:35;15.60;;;8.97;;
58412;SDS011;44209;52.952;6.790;2023-04-15T01:45:01;10.53;;;8.40;;
58412;SDS011;44209;52.952;6.790;2023-04-15T01:47:27;14.60;;;9.00;;
58412;SDS011;44209;52.952;6.790;2023-04-15T01:49:53;15.63;;;9.43;;
58412;SDS011;44209;52.952;6.790;2023-04-15T01:52:19;13.60;;;9.17;;
58412;SDS011;44209;52.952;6.790;2023-04-15T01:54:46;13.80;;;9.40;;
58412;SDS011;44209;52.952;6.790;2023-04-15T01:57:12;17.00;;;10.07;;
58412;SDS011;44209;52.952;6.790;2023-04-15T01:59:37;14.00;;;8.63;;
58412;SDS011;44209;52.952;6.790;2023-04-15T02:02:03;17.70;;;10.17;;
58412;SDS011;44209;52.952;6.790;2023-04-15T02:04:29;15.03;;;9.70;;
58412;SDS011;44209;52.952;6.790;2023-04-15T02:06:55;15.20;;;9.97;;
58412;SDS011;44209;52.952;6.790;2023-04-15T02:09:21;15.23;;;10.30;;
58412;SDS011;44209;52.952;6.790;2023-04-15T02:11:47;13.07;;;9.77;;
58412;SDS011;44209;52.952;6.790;2023-04-15T02:14:13;18.50;;;10.47;;
58412;SDS011;44209;52.952;6.790;2023-04-15T02:16:38;16.53;;;10.60;;
58412;SDS011;44209;52.952;6.790;2023-04-15T02:19:04;14.60;;;10.40;;
58412;SDS011;44209;52.952;6.790;2023-04-15T02:21:30;13.57;;;10.07;;
58412;SDS011;44209;52.952;6.790;2023-04-15T02:23:56;15.37;;;10.97;;
58412;SDS011;44209;52.952;6.790;2023-04-15T02:26:21;15.83;;;10.57;;
58412;SDS011;44209;52.952;6.790;2023-04-15T02:28:49;17.20;;;9.87;;
58412;SDS011;44209;52.952;6.790;2023-04-15T02:31:17;16.73;;;10.53;;
58412;SDS011;44209;52.952;6.790;2023-04-15T02:33:43;15.33;;;10.37;;
58412;SDS011;44209;52.952;6.790;2023-04-15T02:36:09;14.33;;;11.00;;
58412;SDS011;44209;52.952;6.790;2023-04-15T02:38:36;17.30;;;10.87;;
58412;SDS011;44209;52.952;6.790;2023-04-15T02:41:04;16.53;;;10.30;;
58412;SDS011;44209;52.952;6.790;2023-04-15T02:43:30;17.07;;;10.53;;
58412;SDS011;44209;52.952;6.790;2023-04-15T02:45:55;14.13;;;10.60;;
58412;SDS011;44209;52.952;6.790;2023-04-15T02:48:21;16.57;;;10.50;;
58412;SDS011;44209;52.952;6.790;2023-04-15T02:50:47;14.23;;;10.23;;
58412;SDS011;44209;52.952;6.790;2023-04-15T02:53:12;16.23;;;10.77;;
58412;SDS011;44209;52.952;6.790;2023-04-15T02:55:38;17.97;;;10.83;;
58412;SDS011;44209;52.952;6.790;2023-04-15T02:58:05;16.40;;;11.13;;
58412;SDS011;44209;52.952;6.790;2023-04-15T03:00:31;16.40;;;11.23;;
58412;SDS011;44209;52.952;6.790;2023-04-15T03:03:04;17.40;;;11.50;;
58412;SDS011;44209;52.952;6.790;2023-04-15T03:05:30;17.10;;;11.80;;
58412;SDS011;44209;52.952;6.790;2023-04-15T03:07:56;17.03;;;11.03;;
58412;SDS011;44209;52.952;6.790;2023-04-15T03:10:22;16.93;;;11.27;;
58412;SDS011;44209;52.952;6.790;2023-04-15T03:12:47;16.10;;;11.53;;
58412;SDS011;44209;52.952;6.790;2023-04-15T03:15:13;15.80;;;11.17;;
58412;SDS011;44209;52.952;6.790;2023-04-15T03:17:39;16.67;;;11.07;;
58412;SDS011;44209;52.952;6.790;2023-04-15T03:20:05;18.00;;;11.83;;
58412;SDS011;44209;52.952;6.790;2023-04-15T03:22:31;18.03;;;11.93;;
58412;SDS011;44209;52.952;6.790;2023-04-15T03:24:57;17.10;;;12.30;;
58412;SDS011;44209;52.952;6.790;2023-04-15T03:27:23;17.87;;;12.53;;
58412;SDS011;44209;52.952;6.790;2023-04-15T03:29:49;16.27;;;11.33;;
58412;SDS011;44209;52.952;6.790;2023-04-15T03:32:15;17.40;;;12.37;;
58412;SDS011;44209;52.952;6.790;2023-04-15T03:34:42;19.97;;;13.13;;
58412;SDS011;44209;52.952;6.790;2023-04-15T03:37:07;18.30;;;12.30;;
58412;SDS011;44209;52.952;6.790;2023-04-15T03:39:33;19.93;;;12.63;;
58412;SDS011;44209;52.952;6.790;2023-04-15T03:41:59;18.87;;;13.93;;
58412;SDS011;44209;52.952;6.790;2023-04-15T03:44:26;19.40;;;12.30;;
58412;SDS011;44209;52.952;6.790;2023-04-15T03:46:52;18.27;;;13.00;;
58412;SDS011;44209;52.952;6.790;2023-04-15T03:49:18;16.90;;;12.53;;
58412;SDS011;44209;52.952;6.790;2023-04-15T03:51:44;18.83;;;12.53;;
58412;SDS011;44209;52.952;6.790;2023-04-15T03:54:10;19.83;;;13.53;;
58412;SDS011;44209;52.952;6.790;2023-04-15T03:56:39;18.90;;;14.07;;
58412;SDS011;44209;52.952;6.790;2023-04-15T03:59:05;18.57;;;13.43;;
58412;SDS011;44209;52.952;6.790;2023-04-15T04:01:30;22.50;;;14.57;;
58412;SDS011;44209;52.952;6.790;2023-04-15T04:03:56;20.43;;;13.93;;
58412;SDS011;44209;52.952;6.790;2023-04-15T04:06:22;23.07;;;15.37;;
58412;SDS011;44209;52.952;6.790;2023-04-15T04:08:48;25.23;;;16.27;;
58412;SDS011;44209;52.952;6.790;2023-04-15T04:11:13;23.80;;;16.30;;
58412;SDS011;44209;52.952;6.790;2023-04-15T04:13:39;22.00;;;15.47;;
58412;SDS011;44209;52.952;6.790;2023-04-15T04:16:05;21.40;;;15.10;;
58412;SDS011;44209;52.952;6.790;2023-04-15T04:18:31;24.27;;;15.93;;
58412;SDS011;44209;52.952;6.790;2023-04-15T04:20:57;22.47;;;15.47;;
58412;SDS011;44209;52.952;6.790;2023-04-15T04:23:23;24.23;;;16.77;;
58412;SDS011;44209;52.952;6.790;2023-04-15T04:25:49;28.47;;;19.40;;
58412;SDS011;44209;52.952;6.790;2023-04-15T04:28:15;29.90;;;18.83;;
58412;SDS011;44209;52.952;6.790;2023-04-15T04:30:41;30.83;;;19.20;;
58412;SDS011;44209;52.952;6.790;2023-04-15T04:33:06;33.10;;;21.20;;
58412;SDS011;44209;52.952;6.790;2023-04-15T04:35:32;30.30;;;18.60;;
58412;SDS011;44209;52.952;6.790;2023-04-15T04:37:59;31.47;;;19.70;;
58412;SDS011;44209;52.952;6.790;2023-04-15T04:40:25;30.60;;;19.17;;
58412;SDS011;44209;52.952;6.790;2023-04-15T04:42:51;32.13;;;19.00;;
58412;SDS011;44209;52.952;6.790;2023-04-15T04:45:18;31.77;;;20.97;;
58412;SDS011;44209;52.952;6.790;2023-04-15T04:47:44;31.77;;;20.57;;
58412;SDS011;44209;52.952;6.790;2023-04-15T04:50:10;31.57;;;19.77;;
58412;SDS011;44209;52.952;6.790;2023-04-15T04:52:36;33.13;;;19.83;;
58412;SDS011;44209;52.952;6.790;2023-04-15T04:55:03;36.70;;;21.20;;
58412;SDS011;44209;52.952;6.790;2023-04-15T04:57:29;27.30;;;18.37;;
58412;SDS011;44209;52.952;6.790;2023-04-15T04:59:55;29.07;;;19.40;;
58412;SDS011;44209;52.952;6.790;2023-04-15T05:02:21;26.40;;;17.63;;
58412;SDS011;44209;52.952;6.790;2023-04-15T05:04:47;28.73;;;19.40;;
58412;SDS011;44209;52.952;6.790;2023-04-15T05:07:14;30.10;;;19.33;;
58412;SDS011;44209;52.952;6.790;2023-04-15T05:09:40;26.07;;;18.23;;
58412;SDS011;44209;52.952;6.790;2023-04-15T05:12:06;30.20;;;18.87;;
58412;SDS011;44209;52.952;6.790;2023-04-15T05:14:33;31.03;;;19.07;;
58412;SDS011;44209;52.952;6.790;2023-04-15T05:16:59;31.17;;;20.00;;
58412;SDS011;44209;52.952;6.790;2023-04-15T05:19:24;33.30;;;21.60;;
58412;SDS011;44209;52.952;6.790;2023-04-15T05:21:50;29.70;;;19.27;;
58412;SDS011;44209;52.952;6.790;2023-04-15T05:24:16;33.43;;;20.40;;
58412;SDS011;44209;52.952;6.790;2023-04-15T05:26:42;33.60;;;21.83;;
58412;SDS011;44209;52.952;6.790;2023-04-15T05:29:08;36.10;;;21.23;;
58412;SDS011;44209;52.952;6.790;2023-04-15T05:31:34;32.80;;;20.90;;
58412;SDS011;44209;52.952;6.790;2023-04-15T05:34:00;31.47;;;20.40;;
58412;SDS011;44209;52.952;6.790;2023-04-15T05:36:26;30.13;;;19.90;;
58412;SDS011;44209;52.952;6.790;2023-04-15T05:38:52;31.83;;;20.23;;
58412;SDS011;44209;52.952;6.790;2023-04-15T05:41:18;28.17;;;17.87;;
58412;SDS011;44209;52.952;6.790;2023-04-15T05:43:44;28.90;;;19.20;;
58412;SDS011;44209;52.952;6.790;2023-04-15T05:46:09;30.10;;;18.63;;
58412;SDS011;44209;52.952;6.790;2023-04-15T05:48:35;28.20;;;19.00;;
58412;SDS011;44209;52.952;6.790;2023-04-15T05:51:01;24.87;;;17.13;;
58412;SDS011;44209;52.952;6.790;2023-04-15T05:53:26;26.67;;;16.40;;
58412;SDS011;44209;52.952;6.790;2023-04-15T05:55:52;23.37;;;16.23;;
58412;SDS011;44209;52.952;6.790;2023-04-15T05:58:18;25.90;;;17.40;;
58412;SDS011;44209;52.952;6.790;2023-04-15T06:00:43;26.63;;;18.33;;
58412;SDS011;44209;52.952;6.790;2023-04-15T06:03:10;26.73;;;17.47;;
58412;SDS011;44209;52.952;6.790;2023-04-15T06:05:36;26.27;;;17.17;;
58412;SDS011;44209;52.952;6.790;2023-04-15T06:08:02;26.33;;;18.07;;
58412;SDS011;44209;52.952;6.790;2023-04-15T06:10:28;29.63;;;19.00;;
58412;SDS011;44209;52.952;6.790;2023-04-15T06:12:55;29.60;;;18.50;;
58412;SDS011;44209;52.952;6.790;2023-04-15T06:15:20;28.37;;;18.30;;
58412;SDS011;44209;52.952;6.790;2023-04-15T06:17:46;29.37;;;17.73;;
58412;SDS011;44209;52.952;6.790;2023-04-15T06:20:12;29.63;;;18.83;;
58412;SDS011;44209;52.952;6.790;2023-04-15T06:22:38;27.70;;;18.17;;
58412;SDS011;44209;52.952;6.790;2023-04-15T06:25:04;26.77;;;18.50;;
58412;SDS011;44209;52.952;6.790;2023-04-15T06:27:32;26.10;;;18.53;;
58412;SDS011;44209;52.952;6.790;2023-04-15T06:29:57;27.43;;;18.17;;
58412;SDS011;44209;52.952;6.790;2023-04-15T06:32:23;28.10;;;19.27;;
58412;SDS011;44209;52.952;6.790;2023-04-15T06:34:49;27.87;;;18.80;;
58412;SDS011;44209;52.952;6.790;2023-04-15T06:37:14;26.50;;;18.40;;
58412;SDS011;44209;52.952;6.790;2023-04-15T06:39:40;29.30;;;18.40;;
58412;SDS011;44209;52.952;6.790;2023-04-15T06:42:09;29.27;;;17.87;;
58412;SDS011;44209;52.952;6.790;2023-04-15T06:44:36;27.40;;;18.60;;
58412;SDS011;44209;52.952;6.790;2023-04-15T06:47:02;30.70;;;18.80;;
58412;SDS011;44209;52.952;6.790;2023-04-15T06:49:28;26.43;;;18.90;;
58412;SDS011;44209;52.952;6.790;2023-04-15T06:51:53;28.33;;;18.67;;
58412;SDS011;44209;52.952;6.790;2023-04-15T06:54:19;26.80;;;17.37;;
58412;SDS011;44209;52.952;6.790;2023-04-15T06:56:45;29.33;;;18.53;;
58412;SDS011;44209;52.952;6.790;2023-04-15T06:59:11;29.50;;;18.47;;
58412;SDS011;44209;52.952;6.790;2023-04-15T07:01:39;26.47;;;17.20;;
58412;SDS011;44209;52.952;6.790;2023-04-15T07:04:06;27.20;;;17.53;;
58412;SDS011;44209;52.952;6.790;2023-04-15T07:06:31;27.37;;;17.13;;
58412;SDS011;44209;52.952;6.790;2023-04-15T07:08:57;23.83;;;16.80;;
58412;SDS011;44209;52.952;6.790;2023-04-15T07:11:25;25.80;;;17.30;;
58412;SDS011;44209;52.952;6.790;2023-04-15T07:13:50;24.57;;;16.50;;
58412;SDS011;44209;52.952;6.790;2023-04-15T07:16:16;26.40;;;16.87;;
58412;SDS011;44209;52.952;6.790;2023-04-15T07:18:42;25.20;;;17.20;;
58412;SDS011;44209;52.952;6.790;2023-04-15T07:21:08;24.47;;;16.20;;
58412;SDS011;44209;52.952;6.790;2023-04-15T07:23:34;26.03;;;16.17;;
58412;SDS011;44209;52.952;6.790;2023-04-15T07:25:59;24.87;;;15.57;;
58412;SDS011;44209;52.952;6.790;2023-04-15T07:28:25;24.17;;;16.30;;
58412;SDS011;44209;52.952;6.790;2023-04-15T07:30:51;24.43;;;15.87;;
58412;SDS011;44209;52.952;6.790;2023-04-15T07:33:17;25.33;;;15.97;;
58412;SDS011;44209;52.952;6.790;2023-04-15T07:35:43;23.97;;;16.83;;
58412;SDS011;44209;52.952;6.790;2023-04-15T07:38:09;24.13;;;15.77;;
58412;SDS011;44209;52.952;6.790;2023-04-15T07:40:37;23.73;;;15.43;;
58412;SDS011;44209;52.952;6.790;2023-04-15T07:43:03;21.67;;;14.73;;
58412;SDS011;44209;52.952;6.790;2023-04-15T07:45:30;22.43;;;15.03;;
58412;SDS011;44209;52.952;6.790;2023-04-15T07:47:59;23.93;;;15.83;;
58412;SDS011;44209;52.952;6.790;2023-04-15T07:50:26;26.13;;;14.40;;
58412;SDS011;44209;52.952;6.790;2023-04-15T07:52:52;23.07;;;15.33;;
58412;SDS011;44209;52.952;6.790;2023-04-15T07:55:18;22.50;;;14.07;;
58412;SDS011;44209;52.952;6.790;2023-04-15T07:57:47;18.97;;;13.07;;
58412;SDS011;44209;52.952;6.790;2023-04-15T08:00:13;16.03;;;11.50;;
58412;SDS011;44209;52.952;6.790;2023-04-15T08:02:40;14.43;;;10.13;;
58412;SDS011;44209;52.952;6.790;2023-04-15T08:05:11;12.63;;;8.50;;
58412;SDS011;44209;52.952;6.790;2023-04-15T08:07:38;11.13;;;7.63;;
58412;SDS011;44209;52.952;6.790;2023-04-15T08:10:04;12.60;;;8.40;;
58412;SDS011;44209;52.952;6.790;2023-04-15T08:12:30;12.63;;;7.63;;
58412;SDS011;44209;52.952;6.790;2023-04-15T08:14:56;11.43;;;7.80;;
58412;SDS011;44209;52.952;6.790;2023-04-15T08:17:22;10.90;;;7.83;;
58412;SDS011;44209;52.952;6.790;2023-04-15T08:19:48;10.77;;;7.93;;
58412;SDS011;44209;52.952;6.790;2023-04-15T08:22:14;10.20;;;7.13;;
58412;SDS011;44209;52.952;6.790;2023-04-15T08:24:40;10.27;;;7.40;;
58412;SDS011;44209;52.952;6.790;2023-04-15T08:27:06;11.87;;;7.13;;
58412;SDS011;44209;52.952;6.790;2023-04-15T08:29:32;10.70;;;7.27;;
58412;SDS011;44209;52.952;6.790;2023-04-15T08:31:58;10.50;;;7.37;;
58412;SDS011;44209;52.952;6.790;2023-04-15T08:34:28;9.90;;;6.63;;
58412;SDS011;44209;52.952;6.790;2023-04-15T08:36:54;11.47;;;7.03;;
58412;SDS011;44209;52.952;6.790;2023-04-15T08:39:19;10.93;;;7.17;;
58412;SDS011;44209;52.952;6.790;2023-04-15T08:41:46;9.37;;;6.50;;
58412;SDS011;44209;52.952;6.790;2023-04-15T08:44:15;8.63;;;6.10;;
58412;SDS011;44209;52.952;6.790;2023-04-15T08:46:41;9.33;;;5.63;;
58412;SDS011;44209;52.952;6.790;2023-04-15T08:49:11;10.03;;;5.10;;
58412;SDS011;44209;52.952;6.790;2023-04-15T08:51:40;7.00;;;5.13;;
58412;SDS011;44209;52.952;6.790;2023-04-15T08:54:07;8.47;;;5.23;;
58412;SDS011;44209;52.952;6.790;2023-04-15T08:56:33;7.67;;;5.70;;
58412;SDS011;44209;52.952;6.790;2023-04-15T08:59:01;7.47;;;5.03;;
58412;SDS011;44209;52.952;6.790;2023-04-15T09:01:27;6.13;;;4.87;;
58412;SDS011;44209;52.952;6.790;2023-04-15T09:03:53;7.97;;;5.13;;
58412;SDS011;44209;52.952;6.790;2023-04-15T09:06:21;7.23;;;5.13;;
58412;SDS011;44209;52.952;6.790;2023-04-15T09:08:47;9.30;;;5.33;;
58412;SDS011;44209;52.952;6.790;2023-04-15T09:11:14;6.47;;;4.70;;
58412;SDS011;44209;52.952;6.790;2023-04-15T09:13:41;7.03;;;4.50;;
58412;SDS011;44209;52.952;6.790;2023-04-15T09:16:07;6.87;;;4.70;;
58412;SDS011;44209;52.952;6.790;2023-04-15T09:18:34;5.80;;;3.93;;
58412;SDS011;44209;52.952;6.790;2023-04-15T09:21:05;6.93;;;3.80;;
58412;SDS011;44209;52.952;6.790;2023-04-15T09:23:36;7.03;;;3.90;;
58412;SDS011;44209;52.952;6.790;2023-04-15T09:26:03;5.00;;;3.60;;
58412;SDS011;44209;52.952;6.790;2023-04-15T09:28:29;6.03;;;3.70;;
58412;SDS011;44209;52.952;6.790;2023-04-15T09:30:56;5.17;;;3.60;;
58412;SDS011;44209;52.952;6.790;2023-04-15T09:33:22;5.73;;;3.60;;
58412;SDS011;44209;52.952;6.790;2023-04-15T09:36:03;4.63;;;3.70;;
58412;SDS011;44209;52.952;6.790;2023-04-15T09:38:29;6.23;;;3.80;;
58412;SDS011;44209;52.952;6.790;2023-04-15T09:40:56;6.07;;;3.97;;
58412;SDS011;44209;52.952;6.790;2023-04-15T09:43:22;5.13;;;3.70;;
58412;SDS011;44209;52.952;6.790;2023-04-15T09:46:04;4.80;;;3.40;;
58412;SDS011;44209;52.952;6.790;2023-04-15T09:48:30;6.93;;;3.70;;
58412;SDS011;44209;52.952;6.790;2023-04-15T09:50:59;4.80;;;3.30;;
58412;SDS011;44209;52.952;6.790;2023-04-15T09:53:26;5.40;;;3.57;;
58412;SDS011;44209;52.952;6.790;2023-04-15T09:55:53;4.67;;;3.43;;
58412;SDS011;44209;52.952;6.790;2023-04-15T09:58:21;3.77;;;3.27;;
58412;SDS011;44209;52.952;6.790;2023-04-15T10:00:52;5.50;;;3.60;;
58412;SDS011;44209;52.952;6.790;2023-04-15T10:03:20;3.97;;;3.43;;
58412;SDS011;44209;52.952;6.790;2023-04-15T10:05:54;5.20;;;3.43;;
58412;SDS011;44209;52.952;6.790;2023-04-15T10:08:31;4.70;;;3.70;;
58412;SDS011;44209;52.952;6.790;2023-04-15T10:10:59;5.47;;;3.33;;
58412;SDS011;44209;52.952;6.790;2023-04-15T10:13:28;5.57;;;3.40;;
58412;SDS011;44209;52.952;6.790;2023-04-15T10:15:57;4.67;;;3.17;;
58412;SDS011;44209;52.952;6.790;2023-04-15T10:18:25;4.93;;;3.13;;
58412;SDS011;44209;52.952;6.790;2023-04-15T10:20:53;6.40;;;3.43;;
58412;SDS011;44209;52.952;6.790;2023-04-15T10:23:19;4.50;;;3.40;;
58412;SDS011;44209;52.952;6.790;2023-04-15T10:25:47;5.07;;;3.27;;
58412;SDS011;44209;52.952;6.790;2023-04-15T10:28:15;4.50;;;3.20;;
58412;SDS011;44209;52.952;6.790;2023-04-15T10:30:41;4.50;;;3.37;;
58412;SDS011;44209;52.952;6.790;2023-04-15T10:33:07;4.13;;;3.27;;
58412;SDS011;44209;52.952;6.790;2023-04-15T10:35:34;6.80;;;3.43;;
58412;SDS011;44209;52.952;6.790;2023-04-15T10:38:00;5.13;;;3.63;;
58412;SDS011;44209;52.952;6.790;2023-04-15T10:40:27;5.43;;;3.30;;
58412;SDS011;44209;52.952;6.790;2023-04-15T10:43:00;4.87;;;3.07;;
58412;SDS011;44209;52.952;6.790;2023-04-15T10:45:33;4.10;;;3.07;;
58412;SDS011;44209;52.952;6.790;2023-04-15T10:48:05;6.13;;;3.10;;
58412;SDS011;44209;52.952;6.790;2023-04-15T10:50:31;4.57;;;2.90;;
58412;SDS011;44209;52.952;6.790;2023-04-15T10:52:58;4.07;;;2.77;;
58412;SDS011;44209;52.952;6.790;2023-04-15T10:55:26;6.87;;;3.23;;
58412;SDS011;44209;52.952;6.790;2023-04-15T10:57:57;4.47;;;3.10;;
58412;SDS011;44209;52.952;6.790;2023-04-15T11:00:26;4.43;;;3.37;;
58412;SDS011;44209;52.952;6.790;2023-04-15T11:03:07;4.40;;;2.90;;
58412;SDS011;44209;52.952;6.790;2023-04-15T11:08:05;3.70;;;3.10;;
58412;SDS011;44209;52.952;6.790;2023-04-15T11:13:01;4.23;;;2.70;;
58412;SDS011;44209;52.952;6.790;2023-04-15T11:18:11;4.57;;;2.90;;
58412;SDS011;44209;52.952;6.790;2023-04-15T11:20:40;5.90;;;3.20;;
58412;SDS011;44209;52.952;6.790;2023-04-15T11:23:16;9.40;;;3.60;;
58412;SDS011;44209;52.952;6.790;2023-04-15T11:25:43;7.60;;;3.70;;
58412;SDS011;44209;52.952;6.790;2023-04-15T11:28:10;5.60;;;3.10;;
58412;SDS011;44209;52.952;6.790;2023-04-15T11:30:37;5.93;;;3.50;;
58412;SDS011;44209;52.952;6.790;2023-04-15T11:33:07;8.00;;;3.93;;
58412;SDS011;44209;52.952;6.790;2023-04-15T11:35:34;9.37;;;3.90;;
58412;SDS011;44209;52.952;6.790;2023-04-15T11:38:04;6.90;;;3.57;;
58412;SDS011;44209;52.952;6.790;2023-04-15T11:43:12;4.73;;;3.33;;
58412;SDS011;44209;52.952;6.790;2023-04-15T11:45:47;7.13;;;3.27;;
58412;SDS011;44209;52.952;6.790;2023-04-15T11:48:21;6.10;;;3.50;;
58412;SDS011;44209;52.952;6.790;2023-04-15T11:50:54;8.10;;;3.87;;
58412;SDS011;44209;52.952;6.790;2023-04-15T11:53:44;7.73;;;3.73;;
58412;SDS011;44209;52.952;6.790;2023-04-15T11:56:18;9.57;;;4.20;;
58412;SDS011;44209;52.952;6.790;2023-04-15T11:58:50;4.67;;;3.50;;
58412;SDS011;44209;52.952;6.790;2023-04-15T12:01:17;6.63;;;3.90;;
58412;SDS011;44209;52.952;6.790;2023-04-15T12:03:47;9.67;;;4.10;;
58412;SDS011;44209;52.952;6.790;2023-04-15T12:14:20;5.83;;;3.43;;
58412;SDS011;44209;52.952;6.790;2023-04-15T12:16:51;6.13;;;3.40;;
58412;SDS011;44209;52.952;6.790;2023-04-15T12:19:21;8.20;;;3.50;;
58412;SDS011;44209;52.952;6.790;2023-04-15T12:21:49;6.33;;;3.17;;
58412;SDS011;44209;52.952;6.790;2023-04-15T12:24:18;9.90;;;3.40;;
58412;SDS011;44209;52.952;6.790;2023-04-15T12:26:47;9.30;;;2.90;;
58412;SDS011;44209;52.952;6.790;2023-04-15T12:29:17;11.07;;;3.40;;
58412;SDS011;44209;52.952;6.790;2023-04-15T12:31:48;8.30;;;3.00;;
58412;SDS011;44209;52.952;6.790;2023-04-15T12:34:14;7.73;;;3.03;;
58412;SDS011;44209;52.952;6.790;2023-04-15T12:36:41;5.60;;;3.07;;
58412;SDS011;44209;52.952;6.790;2023-04-15T12:39:07;8.03;;;3.00;;
58412;SDS011;44209;52.952;6.790;2023-04-15T12:41:33;8.77;;;2.63;;
58412;SDS011;44209;52.952;6.790;2023-04-15T12:43:59;9.00;;;3.00;;
58412;SDS011;44209;52.952;6.790;2023-04-15T12:46:25;7.40;;;3.17;;
58412;SDS011;44209;52.952;6.790;2023-04-15T12:48:51;7.27;;;2.87;;
58412;SDS011;44209;52.952;6.790;2023-04-15T12:51:17;5.50;;;3.30;;
58412;SDS011;44209;52.952;6.790;2023-04-15T12:53:45;5.53;;;2.77;;
58412;SDS011;44209;52.952;6.790;2023-04-15T12:56:12;7.27;;;3.10;;
58412;SDS011;44209;52.952;6.790;2023-04-15T12:58:38;6.17;;;3.50;;
58412;SDS011;44209;52.952;6.790;2023-04-15T13:01:04;8.27;;;3.30;;
58412;SDS011;44209;52.952;6.790;2023-04-15T13:03:30;7.03;;;3.10;;
58412;SDS011;44209;52.952;6.790;2023-04-15T13:05:56;7.03;;;3.27;;
58412;SDS011;44209;52.952;6.790;2023-04-15T13:08:22;10.67;;;4.20;;
58412;SDS011;44209;52.952;6.790;2023-04-15T13:10:48;8.50;;;4.07;;
58412;SDS011;44209;52.952;6.790;2023-04-15T13:13:13;9.80;;;3.30;;
58412;SDS011;44209;52.952;6.790;2023-04-15T13:15:39;8.50;;;3.77;;
58412;SDS011;44209;52.952;6.790;2023-04-15T13:18:05;8.13;;;3.50;;
58412;SDS011;44209;52.952;6.790;2023-04-15T13:20:32;8.40;;;3.90;;
58412;SDS011;44209;52.952;6.790;2023-04-15T13:22:57;9.10;;;3.90;;
58412;SDS011;44209;52.952;6.790;2023-04-15T13:25:24;7.03;;;3.77;;
58412;SDS011;44209;52.952;6.790;2023-04-15T13:27:50;8.43;;;3.17;;
58412;SDS011;44209;52.952;6.790;2023-04-15T13:30:16;6.80;;;3.77;;
58412;SDS011;44209;52.952;6.790;2023-04-15T13:32:42;9.00;;;4.00;;
58412;SDS011;44209;52.952;6.790;2023-04-15T13:35:08;8.60;;;3.70;;
58412;SDS011;44209;52.952;6.790;2023-04-15T13:37:34;8.07;;;3.50;;
58412;SDS011;44209;52.952;6.790;2023-04-15T13:39:59;6.87;;;3.33;;
58412;SDS011;44209;52.952;6.790;2023-04-15T13:42:25;7.63;;;4.17;;
58412;SDS011;44209;52.952;6.790;2023-04-15T13:44:51;9.53;;;3.73;;
58412;SDS011;44209;52.952;6.790;2023-04-15T13:47:20;7.20;;;3.60;;
58412;SDS011;44209;52.952;6.790;2023-04-15T13:49:46;8.77;;;3.53;;
58412;SDS011;44209;52.952;6.790;2023-04-15T13:52:14;7.17;;;3.30;;
58412;SDS011;44209;52.952;6.790;2023-04-15T13:54:40;8.10;;;3.27;;
58412;SDS011;44209;52.952;6.790;2023-04-15T13:57:05;10.20;;;3.43;;
58412;SDS011;44209;52.952;6.790;2023-04-15T13:59:32;9.17;;;3.63;;
58412;SDS011;44209;52.952;6.790;2023-04-15T14:01:58;7.77;;;3.57;;
58412;SDS011;44209;52.952;6.790;2023-04-15T14:04:24;10.73;;;3.83;;
58412;SDS011;44209;52.952;6.790;2023-04-15T14:06:50;8.33;;;3.80;;
58412;SDS011;44209;52.952;6.790;2023-04-15T14:09:16;7.23;;;3.90;;
58412;SDS011;44209;52.952;6.790;2023-04-15T14:11:42;8.00;;;3.37;;
58412;SDS011;44209;52.952;6.790;2023-04-15T14:14:08;12.43;;;4.10;;
58412;SDS011;44209;52.952;6.790;2023-04-15T14:16:34;9.83;;;4.23;;
58412;SDS011;44209;52.952;6.790;2023-04-15T14:19:00;8.40;;;3.77;;
58412;SDS011;44209;52.952;6.790;2023-04-15T14:21:26;8.13;;;3.50;;
58412;SDS011;44209;52.952;6.790;2023-04-15T14:23:54;14.07;;;5.23;;
58412;SDS011;44209;52.952;6.790;2023-04-15T14:26:19;9.50;;;4.43;;
58412;SDS011;44209;52.952;6.790;2023-04-15T14:28:45;12.20;;;3.90;;
58412;SDS011;44209;52.952;6.790;2023-04-15T14:31:12;10.70;;;3.93;;
58412;SDS011;44209;52.952;6.790;2023-04-15T14:33:38;12.33;;;4.13;;
58412;SDS011;44209;52.952;6.790;2023-04-15T14:36:04;10.50;;;3.93;;
58412;SDS011;44209;52.952;6.790;2023-04-15T14:38:33;11.93;;;4.30;;
58412;SDS011;44209;52.952;6.790;2023-04-15T14:41:02;14.05;;;4.40;;
58412;SDS011;44209;52.952;6.790;2023-04-15T14:43:29;13.07;;;4.80;;
58412;SDS011;44209;52.952;6.790;2023-04-15T14:45:54;8.53;;;4.37;;
58412;SDS011;44209;52.952;6.790;2023-04-15T14:48:20;10.63;;;4.63;;
58412;SDS011;44209;52.952;6.790;2023-04-15T14:50:46;10.27;;;4.20;;